sensor_id;sensor_type;location;lat;lon;timestamp;P1;durP1;ratioP1;P2;durP2;ratioP2
50803;SDS011;37205;51.434;6.756;2023-05-02T00:01:10;35.60;;;29.17;;
50803;SDS011;37205;51.434;6.756;2023-05-02T00:03:36;34.50;;;29.80;;
50803;SDS011;37205;51.434;6.756;2023-05-02T00:06:01;35.75;;;30.05;;
50803;SDS011;37205;51.434;6.756;2023-05-02T00:08:27;36.78;;;30.95;;
50803;SDS011;37205;51.434;6.756;2023-05-02T00:10:52;38.10;;;31.13;;
50803;SDS011;37205;51.434;6.756;2023-05-02T00:13:18;36.83;;;30.92;;
50803;SDS011;37205;51.434;6.756;2023-05-02T00:15:43;39.42;;;31.73;;
50803;SDS011;37205;51.434;6.756;2023-05-02T00:18:09;38.15;;;31.35;;
50803;SDS011;37205;51.434;6.756;2023-05-02T00:20:35;42.25;;;33.42;;
50803;SDS011;37205;51.434;6.756;2023-05-02T00:23:03;43.35;;;33.28;;
50803;SDS011;37205;51.434;6.756;2023-05-02T00:25:29;42.13;;;34.92;;
50803;SDS011;37205;51.434;6.756;2023-05-02T00:27:54;43.70;;;35.55;;
50803;SDS011;37205;51.434;6.756;2023-05-02T00:30:20;44.50;;;35.85;;
50803;SDS011;37205;51.434;6.756;2023-05-02T00:32:45;46.28;;;35.75;;
50803;SDS011;37205;51.434;6.756;2023-05-02T00:35:11;43.33;;;34.00;;
50803;SDS011;37205;51.434;6.756;2023-05-02T00:37:36;44.90;;;36.03;;
50803;SDS011;37205;51.434;6.756;2023-05-02T00:40:03;46.20;;;36.88;;
50803;SDS011;37205;51.434;6.756;2023-05-02T00:42:29;49.85;;;37.53;;
50803;SDS011;37205;51.434;6.756;2023-05-02T00:44:58;43.03;;;33.38;;
50803;SDS011;37205;51.434;6.756;2023-05-02T00:47:24;47.15;;;37.50;;
50803;SDS011;37205;51.434;6.756;2023-05-02T00:49:50;46.85;;;36.67;;
50803;SDS011;37205;51.434;6.756;2023-05-02T00:52:15;47.22;;;37.03;;
50803;SDS011;37205;51.434;6.756;2023-05-02T00:54:41;50.33;;;37.92;;
50803;SDS011;37205;51.434;6.756;2023-05-02T00:57:08;48.63;;;36.25;;
50803;SDS011;37205;51.434;6.756;2023-05-02T00:59:34;50.80;;;37.58;;
50803;SDS011;37205;51.434;6.756;2023-05-02T01:13:11;59.15;;;41.15;;
50803;SDS011;37205;51.434;6.756;2023-05-02T01:15:47;55.58;;;42.15;;
50803;SDS011;37205;51.434;6.756;2023-05-02T01:18:15;59.05;;;41.08;;
50803;SDS011;37205;51.434;6.756;2023-05-02T01:20:45;57.47;;;41.30;;
50803;SDS011;37205;51.434;6.756;2023-05-02T01:29:08;52.35;;;36.40;;
50803;SDS011;37205;51.434;6.756;2023-05-02T01:31:38;52.45;;;38.33;;
50803;SDS011;37205;51.434;6.756;2023-05-02T01:34:09;51.92;;;36.80;;
50803;SDS011;37205;51.434;6.756;2023-05-02T01:36:36;49.72;;;35.95;;
50803;SDS011;37205;51.434;6.756;2023-05-02T01:39:07;50.30;;;34.92;;
50803;SDS011;37205;51.434;6.756;2023-05-02T01:41:34;49.13;;;34.08;;
50803;SDS011;37205;51.434;6.756;2023-05-02T01:44:01;52.35;;;34.70;;
50803;SDS011;37205;51.434;6.756;2023-05-02T01:46:29;49.58;;;33.50;;
50803;SDS011;37205;51.434;6.756;2023-05-02T01:48:57;52.17;;;33.65;;
50803;SDS011;37205;51.434;6.756;2023-05-02T01:51:29;51.63;;;32.35;;
50803;SDS011;37205;51.434;6.756;2023-05-02T01:54:03;51.33;;;33.65;;
50803;SDS011;37205;51.434;6.756;2023-05-02T01:56:31;45.65;;;30.70;;
50803;SDS011;37205;51.434;6.756;2023-05-02T01:59:01;47.75;;;31.55;;
50803;SDS011;37205;51.434;6.756;2023-05-02T02:01:29;45.75;;;31.70;;
50803;SDS011;37205;51.434;6.756;2023-05-02T02:03:55;45.58;;;31.40;;
50803;SDS011;37205;51.434;6.756;2023-05-02T02:06:22;46.53;;;31.48;;
50803;SDS011;37205;51.434;6.756;2023-05-02T02:08:48;46.00;;;32.00;;
50803;SDS011;37205;51.434;6.756;2023-05-02T02:11:16;46.03;;;30.83;;
50803;SDS011;37205;51.434;6.756;2023-05-02T02:13:49;43.78;;;29.65;;
50803;SDS011;37205;51.434;6.756;2023-05-02T02:16:23;42.53;;;28.17;;
50803;SDS011;37205;51.434;6.756;2023-05-02T02:18:54;40.70;;;28.38;;
50803;SDS011;37205;51.434;6.756;2023-05-02T02:21:21;44.67;;;27.63;;
50803;SDS011;37205;51.434;6.756;2023-05-02T02:23:49;42.72;;;28.73;;
50803;SDS011;37205;51.434;6.756;2023-05-02T02:26:18;40.83;;;28.70;;
50803;SDS011;37205;51.434;6.756;2023-05-02T02:28:45;37.67;;;25.83;;
50803;SDS011;37205;51.434;6.756;2023-05-02T02:31:12;40.72;;;28.52;;
50803;SDS011;37205;51.434;6.756;2023-05-02T02:33:37;41.90;;;27.05;;
50803;SDS011;37205;51.434;6.756;2023-05-02T02:36:09;41.17;;;28.00;;
50803;SDS011;37205;51.434;6.756;2023-05-02T02:38:47;43.08;;;28.20;;
50803;SDS011;37205;51.434;6.756;2023-05-02T02:41:21;39.80;;;26.88;;
50803;SDS011;37205;51.434;6.756;2023-05-02T02:51:31;36.80;;;25.83;;
50803;SDS011;37205;51.434;6.756;2023-05-02T02:54:11;38.00;;;24.40;;
50803;SDS011;37205;51.434;6.756;2023-05-02T02:56:47;34.53;;;23.52;;
50803;SDS011;37205;51.434;6.756;2023-05-02T02:59:25;36.83;;;22.90;;
50803;SDS011;37205;51.434;6.756;2023-05-02T03:02:04;33.20;;;23.05;;
50803;SDS011;37205;51.434;6.756;2023-05-02T03:04:36;28.35;;;20.20;;
50803;SDS011;37205;51.434;6.756;2023-05-02T03:07:04;31.73;;;19.77;;
50803;SDS011;37205;51.434;6.756;2023-05-02T03:09:39;30.60;;;20.13;;
50803;SDS011;37205;51.434;6.756;2023-05-02T03:12:09;31.88;;;20.58;;
50803;SDS011;37205;51.434;6.756;2023-05-02T03:14:35;29.73;;;20.27;;
50803;SDS011;37205;51.434;6.756;2023-05-02T03:17:02;28.58;;;18.92;;
50803;SDS011;37205;51.434;6.756;2023-05-02T03:19:28;27.35;;;19.08;;
50803;SDS011;37205;51.434;6.756;2023-05-02T03:21:53;28.52;;;18.10;;
50803;SDS011;37205;51.434;6.756;2023-05-02T03:24:19;27.95;;;18.55;;
50803;SDS011;37205;51.434;6.756;2023-05-02T03:26:45;28.33;;;20.23;;
50803;SDS011;37205;51.434;6.756;2023-05-02T03:29:14;32.28;;;23.30;;
50803;SDS011;37205;51.434;6.756;2023-05-02T03:31:40;32.95;;;20.50;;
50803;SDS011;37205;51.434;6.756;2023-05-02T03:34:06;29.70;;;20.38;;
50803;SDS011;37205;51.434;6.756;2023-05-02T03:36:31;28.83;;;19.60;;
50803;SDS011;37205;51.434;6.756;2023-05-02T03:38:57;28.00;;;18.52;;
50803;SDS011;37205;51.434;6.756;2023-05-02T03:41:23;23.67;;;16.33;;
50803;SDS011;37205;51.434;6.756;2023-05-02T03:43:51;26.23;;;16.02;;
50803;SDS011;37205;51.434;6.756;2023-05-02T03:46:16;24.88;;;17.38;;
50803;SDS011;37205;51.434;6.756;2023-05-02T03:48:42;21.83;;;15.70;;
50803;SDS011;37205;51.434;6.756;2023-05-02T03:51:10;22.55;;;14.63;;
50803;SDS011;37205;51.434;6.756;2023-05-02T03:53:35;22.30;;;14.05;;
50803;SDS011;37205;51.434;6.756;2023-05-02T03:56:01;20.63;;;13.70;;
50803;SDS011;37205;51.434;6.756;2023-05-02T03:58:27;21.50;;;13.60;;
50803;SDS011;37205;51.434;6.756;2023-05-02T04:00:52;19.33;;;13.25;;
50803;SDS011;37205;51.434;6.756;2023-05-02T04:03:19;27.08;;;14.30;;
50803;SDS011;37205;51.434;6.756;2023-05-02T04:05:45;23.50;;;13.88;;
50803;SDS011;37205;51.434;6.756;2023-05-02T04:08:11;20.48;;;13.02;;
50803;SDS011;37205;51.434;6.756;2023-05-02T04:10:37;22.10;;;13.93;;
50803;SDS011;37205;51.434;6.756;2023-05-02T04:13:03;19.73;;;12.90;;
50803;SDS011;37205;51.434;6.756;2023-05-02T04:15:31;23.65;;;13.95;;
50803;SDS011;37205;51.434;6.756;2023-05-02T04:17:57;21.98;;;13.00;;
50803;SDS011;37205;51.434;6.756;2023-05-02T04:20:25;17.52;;;12.43;;
50803;SDS011;37205;51.434;6.756;2023-05-02T04:22:51;21.75;;;13.95;;
50803;SDS011;37205;51.434;6.756;2023-05-02T04:25:17;20.65;;;13.93;;
50803;SDS011;37205;51.434;6.756;2023-05-02T04:27:42;23.33;;;15.25;;
50803;SDS011;37205;51.434;6.756;2023-05-02T04:30:08;22.98;;;14.68;;
50803;SDS011;37205;51.434;6.756;2023-05-02T04:32:34;22.08;;;14.73;;
50803;SDS011;37205;51.434;6.756;2023-05-02T04:35:00;24.08;;;15.35;;
50803;SDS011;37205;51.434;6.756;2023-05-02T04:37:26;25.33;;;16.05;;
50803;SDS011;37205;51.434;6.756;2023-05-02T04:39:51;25.48;;;17.23;;
50803;SDS011;37205;51.434;6.756;2023-05-02T04:42:17;26.00;;;16.45;;
50803;SDS011;37205;51.434;6.756;2023-05-02T04:44:42;25.92;;;16.48;;
50803;SDS011;37205;51.434;6.756;2023-05-02T04:47:12;26.05;;;17.27;;
50803;SDS011;37205;51.434;6.756;2023-05-02T04:49:41;31.42;;;19.92;;
50803;SDS011;37205;51.434;6.756;2023-05-02T04:52:07;29.05;;;19.63;;
50803;SDS011;37205;51.434;6.756;2023-05-02T04:54:34;38.83;;;22.92;;
50803;SDS011;37205;51.434;6.756;2023-05-02T04:57:00;32.30;;;20.50;;
50803;SDS011;37205;51.434;6.756;2023-05-02T04:59:27;28.85;;;19.63;;
50803;SDS011;37205;51.434;6.756;2023-05-02T05:01:54;34.40;;;20.73;;
50803;SDS011;37205;51.434;6.756;2023-05-02T05:04:20;30.67;;;19.38;;
50803;SDS011;37205;51.434;6.756;2023-05-02T05:06:46;32.63;;;18.65;;
50803;SDS011;37205;51.434;6.756;2023-05-02T05:09:13;26.52;;;16.50;;
50803;SDS011;37205;51.434;6.756;2023-05-02T05:11:38;24.05;;;15.68;;
50803;SDS011;37205;51.434;6.756;2023-05-02T05:14:05;25.60;;;14.00;;
50803;SDS011;37205;51.434;6.756;2023-05-02T05:16:34;20.13;;;13.23;;
50803;SDS011;37205;51.434;6.756;2023-05-02T05:18:59;18.08;;;11.93;;
50803;SDS011;37205;51.434;6.756;2023-05-02T05:21:25;17.48;;;11.85;;
50803;SDS011;37205;51.434;6.756;2023-05-02T05:23:51;16.15;;;11.13;;
50803;SDS011;37205;51.434;6.756;2023-05-02T05:26:17;18.90;;;13.13;;
50803;SDS011;37205;51.434;6.756;2023-05-02T05:28:43;16.52;;;10.68;;
50803;SDS011;37205;51.434;6.756;2023-05-02T05:31:12;17.33;;;11.60;;
50803;SDS011;37205;51.434;6.756;2023-05-02T05:33:41;19.95;;;10.63;;
50803;SDS011;37205;51.434;6.756;2023-05-02T05:36:10;17.92;;;8.77;;
50803;SDS011;37205;51.434;6.756;2023-05-02T05:38:38;13.50;;;7.30;;
50803;SDS011;37205;51.434;6.756;2023-05-02T05:41:04;12.57;;;6.85;;
50803;SDS011;37205;51.434;6.756;2023-05-02T05:43:30;12.25;;;6.03;;
50803;SDS011;37205;51.434;6.756;2023-05-02T05:45:56;9.43;;;4.95;;
50803;SDS011;37205;51.434;6.756;2023-05-02T05:48:21;10.15;;;5.22;;
50803;SDS011;37205;51.434;6.756;2023-05-02T05:50:47;9.07;;;5.30;;
50803;SDS011;37205;51.434;6.756;2023-05-02T05:53:16;8.85;;;5.22;;
50803;SDS011;37205;51.434;6.756;2023-05-02T05:55:42;9.68;;;4.68;;
50803;SDS011;37205;51.434;6.756;2023-05-02T05:58:08;11.00;;;4.65;;
50803;SDS011;37205;51.434;6.756;2023-05-02T06:00:34;9.27;;;3.88;;
50803;SDS011;37205;51.434;6.756;2023-05-02T06:03:01;9.77;;;4.13;;
50803;SDS011;37205;51.434;6.756;2023-05-02T06:05:30;10.23;;;5.30;;
50803;SDS011;37205;51.434;6.756;2023-05-02T06:07:56;6.82;;;4.00;;
50803;SDS011;37205;51.434;6.756;2023-05-02T06:10:22;10.43;;;4.25;;
50803;SDS011;37205;51.434;6.756;2023-05-02T06:12:48;9.68;;;4.18;;
50803;SDS011;37205;51.434;6.756;2023-05-02T06:15:13;13.35;;;5.05;;
50803;SDS011;37205;51.434;6.756;2023-05-02T06:17:39;16.35;;;4.50;;
50803;SDS011;37205;51.434;6.756;2023-05-02T06:20:05;9.95;;;5.10;;
50803;SDS011;37205;51.434;6.756;2023-05-02T06:22:31;9.60;;;5.18;;
50803;SDS011;37205;51.434;6.756;2023-05-02T06:24:57;12.40;;;5.00;;
50803;SDS011;37205;51.434;6.756;2023-05-02T06:27:23;11.95;;;4.07;;
50803;SDS011;37205;51.434;6.756;2023-05-02T06:29:51;9.68;;;3.92;;
50803;SDS011;37205;51.434;6.756;2023-05-02T06:32:18;9.73;;;4.53;;
50803;SDS011;37205;51.434;6.756;2023-05-02T06:34:43;13.30;;;4.68;;
50803;SDS011;37205;51.434;6.756;2023-05-02T06:37:09;7.97;;;4.30;;
50803;SDS011;37205;51.434;6.756;2023-05-02T06:39:35;9.95;;;4.55;;
50803;SDS011;37205;51.434;6.756;2023-05-02T06:42:01;8.32;;;4.63;;
50803;SDS011;37205;51.434;6.756;2023-05-02T06:44:27;9.15;;;4.53;;
50803;SDS011;37205;51.434;6.756;2023-05-02T06:46:52;7.90;;;4.00;;
50803;SDS011;37205;51.434;6.756;2023-05-02T06:49:19;9.82;;;3.30;;
50803;SDS011;37205;51.434;6.756;2023-05-02T06:51:45;6.90;;;3.00;;
50803;SDS011;37205;51.434;6.756;2023-05-02T06:54:11;5.82;;;2.75;;
50803;SDS011;37205;51.434;6.756;2023-05-02T06:56:37;7.20;;;2.70;;
50803;SDS011;37205;51.434;6.756;2023-05-02T06:59:02;9.95;;;2.60;;
50803;SDS011;37205;51.434;6.756;2023-05-02T07:01:28;6.90;;;2.40;;
50803;SDS011;37205;51.434;6.756;2023-05-02T07:03:53;7.20;;;2.95;;
50803;SDS011;37205;51.434;6.756;2023-05-02T07:06:19;5.53;;;2.50;;
50803;SDS011;37205;51.434;6.756;2023-05-02T07:08:45;6.75;;;2.58;;
50803;SDS011;37205;51.434;6.756;2023-05-02T07:11:11;5.03;;;2.40;;
50803;SDS011;37205;51.434;6.756;2023-05-02T07:13:37;6.95;;;2.85;;
50803;SDS011;37205;51.434;6.756;2023-05-02T07:16:05;6.15;;;2.78;;
50803;SDS011;37205;51.434;6.756;2023-05-02T07:18:31;5.10;;;2.55;;
50803;SDS011;37205;51.434;6.756;2023-05-02T07:20:57;8.02;;;2.80;;
50803;SDS011;37205;51.434;6.756;2023-05-02T07:23:22;10.73;;;2.85;;
50803;SDS011;37205;51.434;6.756;2023-05-02T07:25:48;8.63;;;2.95;;
50803;SDS011;37205;51.434;6.756;2023-05-02T07:28:14;8.13;;;3.35;;
50803;SDS011;37205;51.434;6.756;2023-05-02T07:30:40;9.63;;;3.97;;
50803;SDS011;37205;51.434;6.756;2023-05-02T07:33:06;10.32;;;3.65;;
50803;SDS011;37205;51.434;6.756;2023-05-02T07:35:31;12.90;;;5.05;;
50803;SDS011;37205;51.434;6.756;2023-05-02T07:37:57;18.02;;;5.20;;
50803;SDS011;37205;51.434;6.756;2023-05-02T07:40:22;14.15;;;5.57;;
50803;SDS011;37205;51.434;6.756;2023-05-02T07:42:48;11.13;;;5.40;;
50803;SDS011;37205;51.434;6.756;2023-05-02T07:45:14;10.88;;;4.80;;
50803;SDS011;37205;51.434;6.756;2023-05-02T07:47:40;16.42;;;5.40;;
50803;SDS011;37205;51.434;6.756;2023-05-02T07:50:06;9.40;;;4.40;;
50803;SDS011;37205;51.434;6.756;2023-05-02T07:52:32;10.48;;;3.63;;
50803;SDS011;37205;51.434;6.756;2023-05-02T07:55:00;13.73;;;3.97;;
50803;SDS011;37205;51.434;6.756;2023-05-02T07:57:26;6.28;;;3.25;;
50803;SDS011;37205;51.434;6.756;2023-05-02T07:59:51;6.55;;;3.10;;
50803;SDS011;37205;51.434;6.756;2023-05-02T08:02:17;13.02;;;4.30;;
50803;SDS011;37205;51.434;6.756;2023-05-02T08:04:45;9.18;;;4.10;;
50803;SDS011;37205;51.434;6.756;2023-05-02T08:07:11;10.93;;;4.03;;
50803;SDS011;37205;51.434;6.756;2023-05-02T08:09:37;10.65;;;4.25;;
50803;SDS011;37205;51.434;6.756;2023-05-02T08:12:03;15.18;;;3.42;;
50803;SDS011;37205;51.434;6.756;2023-05-02T08:14:29;8.18;;;3.83;;
50803;SDS011;37205;51.434;6.756;2023-05-02T08:16:55;6.70;;;3.67;;
50803;SDS011;37205;51.434;6.756;2023-05-02T08:19:21;12.38;;;3.47;;
50803;SDS011;37205;51.434;6.756;2023-05-02T08:21:46;8.02;;;3.38;;
50803;SDS011;37205;51.434;6.756;2023-05-02T08:24:12;9.90;;;3.22;;
50803;SDS011;37205;51.434;6.756;2023-05-02T08:26:37;5.53;;;2.70;;
50803;SDS011;37205;51.434;6.756;2023-05-02T08:29:03;8.45;;;2.70;;
50803;SDS011;37205;51.434;6.756;2023-05-02T08:31:29;10.32;;;2.75;;
50803;SDS011;37205;51.434;6.756;2023-05-02T08:33:55;6.18;;;3.03;;
50803;SDS011;37205;51.434;6.756;2023-05-02T08:36:20;5.75;;;2.80;;
50803;SDS011;37205;51.434;6.756;2023-05-02T08:38:46;8.95;;;3.10;;
50803;SDS011;37205;51.434;6.756;2023-05-02T08:41:14;8.82;;;2.85;;
50803;SDS011;37205;51.434;6.756;2023-05-02T08:43:41;5.53;;;2.55;;
50803;SDS011;37205;51.434;6.756;2023-05-02T08:46:09;7.97;;;3.05;;
50803;SDS011;37205;51.434;6.756;2023-05-02T08:48:36;9.10;;;3.22;;
50803;SDS011;37205;51.434;6.756;2023-05-02T08:51:03;8.55;;;3.30;;
50803;SDS011;37205;51.434;6.756;2023-05-02T08:53:34;7.93;;;3.03;;
50803;SDS011;37205;51.434;6.756;2023-05-02T08:56:01;11.50;;;3.25;;
50803;SDS011;37205;51.434;6.756;2023-05-02T08:58:27;8.77;;;3.47;;
50803;SDS011;37205;51.434;6.756;2023-05-02T09:00:55;8.88;;;3.55;;
50803;SDS011;37205;51.434;6.756;2023-05-02T09:03:33;6.85;;;2.97;;
50803;SDS011;37205;51.434;6.756;2023-05-02T09:08:30;12.13;;;3.70;;
50803;SDS011;37205;51.434;6.756;2023-05-02T09:10:56;6.53;;;3.20;;
50803;SDS011;37205;51.434;6.756;2023-05-02T09:16:08;6.78;;;3.30;;
50803;SDS011;37205;51.434;6.756;2023-05-02T09:18:40;8.15;;;3.30;;
50803;SDS011;37205;51.434;6.756;2023-05-02T09:21:07;7.20;;;3.20;;
50803;SDS011;37205;51.434;6.756;2023-05-02T09:23:38;7.78;;;3.67;;
50803;SDS011;37205;51.434;6.756;2023-05-02T09:28:47;9.18;;;3.30;;
50803;SDS011;37205;51.434;6.756;2023-05-02T09:31:14;10.13;;;3.28;;
50803;SDS011;37205;51.434;6.756;2023-05-02T09:33:42;7.20;;;3.80;;
50803;SDS011;37205;51.434;6.756;2023-05-02T09:36:10;7.38;;;3.33;;
50803;SDS011;37205;51.434;6.756;2023-05-02T09:38:41;13.00;;;3.40;;
50803;SDS011;37205;51.434;6.756;2023-05-02T09:41:07;7.95;;;3.42;;
50803;SDS011;37205;51.434;6.756;2023-05-02T09:43:33;10.50;;;3.60;;
50803;SDS011;37205;51.434;6.756;2023-05-02T09:46:02;11.23;;;4.90;;
50803;SDS011;37205;51.434;6.756;2023-05-02T09:51:16;7.90;;;3.08;;
50803;SDS011;37205;51.434;6.756;2023-05-02T09:53:43;9.07;;;3.83;;
50803;SDS011;37205;51.434;6.756;2023-05-02T09:56:09;6.63;;;2.95;;
50803;SDS011;37205;51.434;6.756;2023-05-02T09:58:35;8.55;;;3.15;;
50803;SDS011;37205;51.434;6.756;2023-05-02T10:01:00;11.32;;;3.88;;
50803;SDS011;37205;51.434;6.756;2023-05-02T10:03:27;6.50;;;3.33;;
50803;SDS011;37205;51.434;6.756;2023-05-02T10:05:53;10.38;;;3.60;;
50803;SDS011;37205;51.434;6.756;2023-05-02T10:08:21;7.57;;;3.25;;
50803;SDS011;37205;51.434;6.756;2023-05-02T10:10:51;7.93;;;3.78;;
50803;SDS011;37205;51.434;6.756;2023-05-02T10:13:21;9.95;;;4.05;;
50803;SDS011;37205;51.434;6.756;2023-05-02T10:16:05;11.55;;;3.80;;
50803;SDS011;37205;51.434;6.756;2023-05-02T10:18:39;8.50;;;3.17;;
50803;SDS011;37205;51.434;6.756;2023-05-02T10:21:10;10.52;;;4.32;;
50803;SDS011;37205;51.434;6.756;2023-05-02T10:23:37;8.68;;;3.20;;
50803;SDS011;37205;51.434;6.756;2023-05-02T10:26:07;14.10;;;4.25;;
50803;SDS011;37205;51.434;6.756;2023-05-02T10:28:36;9.52;;;3.20;;
50803;SDS011;37205;51.434;6.756;2023-05-02T10:31:03;7.60;;;3.42;;
50803;SDS011;37205;51.434;6.756;2023-05-02T10:33:33;9.43;;;3.40;;
50803;SDS011;37205;51.434;6.756;2023-05-02T10:36:02;8.77;;;3.20;;
50803;SDS011;37205;51.434;6.756;2023-05-02T10:38:29;10.43;;;3.63;;
50803;SDS011;37205;51.434;6.756;2023-05-02T10:40:56;7.38;;;3.15;;
50803;SDS011;37205;51.434;6.756;2023-05-02T10:43:27;8.43;;;3.55;;
50803;SDS011;37205;51.434;6.756;2023-05-02T10:45:57;9.37;;;4.53;;
50803;SDS011;37205;51.434;6.756;2023-05-02T10:48:24;8.40;;;3.65;;
50803;SDS011;37205;51.434;6.756;2023-05-02T10:50:59;7.60;;;3.50;;
50803;SDS011;37205;51.434;6.756;2023-05-02T10:58:49;8.32;;;3.00;;
50803;SDS011;37205;51.434;6.756;2023-05-02T11:06:33;9.82;;;3.13;;
50803;SDS011;37205;51.434;6.756;2023-05-02T11:09:29;8.95;;;3.13;;
50803;SDS011;37205;51.434;6.756;2023-05-02T11:11:55;10.07;;;3.22;;
50803;SDS011;37205;51.434;6.756;2023-05-02T11:24:43;7.35;;;3.15;;
50803;SDS011;37205;51.434;6.756;2023-05-02T11:27:53;7.57;;;3.80;;
50803;SDS011;37205;51.434;6.756;2023-05-02T11:37:54;8.43;;;3.13;;
50803;SDS011;37205;51.434;6.756;2023-05-02T11:40:21;5.10;;;3.17;;
50803;SDS011;37205;51.434;6.756;2023-05-02T11:42:47;10.23;;;3.30;;
50803;SDS011;37205;51.434;6.756;2023-05-02T11:45:13;7.55;;;3.10;;
50803;SDS011;37205;51.434;6.756;2023-05-02T11:47:39;6.35;;;3.10;;
50803;SDS011;37205;51.434;6.756;2023-05-02T11:50:06;5.55;;;3.33;;
50803;SDS011;37205;51.434;6.756;2023-05-02T11:52:36;5.32;;;2.65;;
50803;SDS011;37205;51.434;6.756;2023-05-02T11:55:04;5.53;;;2.50;;
50803;SDS011;37205;51.434;6.756;2023-05-02T11:57:34;5.47;;;2.38;;
50803;SDS011;37205;51.434;6.756;2023-05-02T12:00:00;7.22;;;2.85;;
50803;SDS011;37205;51.434;6.756;2023-05-02T12:02:42;5.55;;;2.33;;
50803;SDS011;37205;51.434;6.756;2023-05-02T12:05:10;6.60;;;2.67;;
50803;SDS011;37205;51.434;6.756;2023-05-02T12:07:46;6.78;;;2.72;;
50803;SDS011;37205;51.434;6.756;2023-05-02T12:10:13;8.80;;;3.70;;
50803;SDS011;37205;51.434;6.756;2023-05-02T12:12:42;5.55;;;3.10;;
50803;SDS011;37205;51.434;6.756;2023-05-02T12:15:09;7.63;;;2.80;;
50803;SDS011;37205;51.434;6.756;2023-05-02T12:17:36;5.97;;;2.40;;
50803;SDS011;37205;51.434;6.756;2023-05-02T12:20:05;5.60;;;2.88;;
50803;SDS011;37205;51.434;6.756;2023-05-02T12:22:32;6.47;;;2.60;;
50803;SDS011;37205;51.434;6.756;2023-05-02T12:24:58;5.70;;;2.53;;
50803;SDS011;37205;51.434;6.756;2023-05-02T12:27:24;8.45;;;3.85;;
50803;SDS011;37205;51.434;6.756;2023-05-02T12:29:50;5.40;;;3.10;;
50803;SDS011;37205;51.434;6.756;2023-05-02T12:32:25;8.18;;;3.58;;
50803;SDS011;37205;51.434;6.756;2023-05-02T12:34:53;8.68;;;3.42;;
50803;SDS011;37205;51.434;6.756;2023-05-02T12:37:22;8.35;;;3.42;;
50803;SDS011;37205;51.434;6.756;2023-05-02T12:39:49;7.85;;;4.28;;
50803;SDS011;37205;51.434;6.756;2023-05-02T12:42:15;8.35;;;3.50;;
50803;SDS011;37205;51.434;6.756;2023-05-02T12:44:45;5.30;;;3.08;;
50803;SDS011;37205;51.434;6.756;2023-05-02T12:47:12;6.68;;;3.15;;
50803;SDS011;37205;51.434;6.756;2023-05-02T12:49:49;7.57;;;3.53;;
50803;SDS011;37205;51.434;6.756;2023-05-02T12:52:18;6.32;;;3.13;;
50803;SDS011;37205;51.434;6.756;2023-05-02T12:54:44;6.13;;;3.25;;
50803;SDS011;37205;51.434;6.756;2023-05-02T12:57:20;6.63;;;3.58;;
50803;SDS011;37205;51.434;6.756;2023-05-02T12:59:52;8.43;;;3.85;;
50803;SDS011;37205;51.434;6.756;2023-05-02T13:02:18;6.90;;;3.10;;
50803;SDS011;37205;51.434;6.756;2023-05-02T13:04:45;7.88;;;3.47;;
50803;SDS011;37205;51.434;6.756;2023-05-02T13:07:11;7.40;;;3.38;;
50803;SDS011;37205;51.434;6.756;2023-05-02T13:09:38;10.73;;;4.43;;
50803;SDS011;37205;51.434;6.756;2023-05-02T13:12:03;7.97;;;4.55;;
50803;SDS011;37205;51.434;6.756;2023-05-02T13:14:30;8.40;;;4.50;;
50803;SDS011;37205;51.434;6.756;2023-05-02T13:16:55;8.02;;;4.22;;
50803;SDS011;37205;51.434;6.756;2023-05-02T13:19:21;7.60;;;3.78;;
50803;SDS011;37205;51.434;6.756;2023-05-02T13:21:47;9.60;;;3.60;;
50803;SDS011;37205;51.434;6.756;2023-05-02T13:24:15;8.75;;;3.70;;
50803;SDS011;37205;51.434;6.756;2023-05-02T13:26:41;7.78;;;3.58;;
50803;SDS011;37205;51.434;6.756;2023-05-02T13:29:07;11.98;;;4.15;;
50803;SDS011;37205;51.434;6.756;2023-05-02T13:31:36;8.05;;;4.13;;
50803;SDS011;37205;51.434;6.756;2023-05-02T13:34:03;8.52;;;3.60;;
50803;SDS011;37205;51.434;6.756;2023-05-02T13:36:29;7.65;;;3.65;;
50803;SDS011;37205;51.434;6.756;2023-05-02T13:38:54;9.25;;;4.22;;
50803;SDS011;37205;51.434;6.756;2023-05-02T13:41:20;8.70;;;4.80;;
50803;SDS011;37205;51.434;6.756;2023-05-02T13:43:47;9.05;;;4.15;;
50803;SDS011;37205;51.434;6.756;2023-05-02T13:46:13;10.35;;;3.97;;
50803;SDS011;37205;51.434;6.756;2023-05-02T13:48:38;8.02;;;3.50;;
50803;SDS011;37205;51.434;6.756;2023-05-02T13:51:04;8.27;;;3.67;;
50803;SDS011;37205;51.434;6.756;2023-05-02T13:53:30;10.95;;;3.67;;
50803;SDS011;37205;51.434;6.756;2023-05-02T13:55:55;8.75;;;3.97;;
50803;SDS011;37205;51.434;6.756;2023-05-02T13:58:21;7.20;;;3.88;;
50803;SDS011;37205;51.434;6.756;2023-05-02T14:00:46;8.05;;;3.75;;
50803;SDS011;37205;51.434;6.756;2023-05-02T14:03:12;10.02;;;4.40;;
50803;SDS011;37205;51.434;6.756;2023-05-02T14:05:44;5.53;;;3.78;;
50803;SDS011;37205;51.434;6.756;2023-05-02T14:08:10;9.73;;;3.63;;
50803;SDS011;37205;51.434;6.756;2023-05-02T14:10:36;7.40;;;3.63;;
50803;SDS011;37205;51.434;6.756;2023-05-02T14:13:05;8.35;;;3.90;;
50803;SDS011;37205;51.434;6.756;2023-05-02T14:15:30;9.45;;;4.07;;
50803;SDS011;37205;51.434;6.756;2023-05-02T14:17:56;9.38;;;4.47;;
50803;SDS011;37205;51.434;6.756;2023-05-02T14:20:21;6.50;;;3.83;;
50803;SDS011;37205;51.434;6.756;2023-05-02T14:22:47;8.93;;;3.70;;
50803;SDS011;37205;51.434;6.756;2023-05-02T14:25:14;6.32;;;3.85;;
50803;SDS011;37205;51.434;6.756;2023-05-02T14:27:39;7.68;;;3.78;;
50803;SDS011;37205;51.434;6.756;2023-05-02T14:30:06;10.50;;;4.88;;
50803;SDS011;37205;51.434;6.756;2023-05-02T14:32:32;7.85;;;4.13;;
50803;SDS011;37205;51.434;6.756;2023-05-02T14:34:58;6.20;;;3.75;;
50803;SDS011;37205;51.434;6.756;2023-05-02T14:37:24;7.72;;;3.63;;
50803;SDS011;37205;51.434;6.756;2023-05-02T14:39:50;8.43;;;3.90;;
50803;SDS011;37205;51.434;6.756;2023-05-02T14:42:20;5.95;;;3.40;;
50803;SDS011;37205;51.434;6.756;2023-05-02T14:44:48;5.28;;;3.05;;
50803;SDS011;37205;51.434;6.756;2023-05-02T14:47:14;7.05;;;3.90;;
50803;SDS011;37205;51.434;6.756;2023-05-02T14:49:40;7.22;;;3.63;;
50803;SDS011;37205;51.434;6.756;2023-05-02T14:52:06;6.63;;;3.60;;
50803;SDS011;37205;51.434;6.756;2023-05-02T14:54:31;9.07;;;3.90;;
50803;SDS011;37205;51.434;6.756;2023-05-02T14:56:59;7.90;;;4.07;;
50803;SDS011;37205;51.434;6.756;2023-05-02T14:59:27;10.07;;;4.20;;
50803;SDS011;37205;51.434;6.756;2023-05-02T15:01:53;10.48;;;3.70;;
50803;SDS011;37205;51.434;6.756;2023-05-02T15:04:19;8.38;;;4.35;;
50803;SDS011;37205;51.434;6.756;2023-05-02T15:06:45;9.60;;;4.35;;
50803;SDS011;37205;51.434;6.756;2023-05-02T15:09:12;8.27;;;4.10;;
50803;SDS011;37205;51.434;6.756;2023-05-02T15:11:38;10.52;;;4.25;;
50803;SDS011;37205;51.434;6.756;2023-05-02T15:14:04;9.32;;;4.13;;
50803;SDS011;37205;51.434;6.756;2023-05-02T15:16:29;8.93;;;4.10;;
50803;SDS011;37205;51.434;6.756;2023-05-02T15:18:55;7.78;;;4.15;;
50803;SDS011;37205;51.434;6.756;2023-05-02T15:21:21;8.32;;;4.07;;
50803;SDS011;37205;51.434;6.756;2023-05-02T15:23:46;9.20;;;3.72;;
50803;SDS011;37205;51.434;6.756;2023-05-02T15:26:12;9.32;;;4.22;;
50803;SDS011;37205;51.434;6.756;2023-05-02T15:28:38;8.02;;;3.65;;
50803;SDS011;37205;51.434;6.756;2023-05-02T15:31:04;8.05;;;4.28;;
50803;SDS011;37205;51.434;6.756;2023-05-02T15:37:15;8.43;;;3.85;;
50803;SDS011;37205;51.434;6.756;2023-05-02T15:39:40;9.45;;;4.50;;
50803;SDS011;37205;51.434;6.756;2023-05-02T15:42:06;9.48;;;4.35;;
50803;SDS011;37205;51.434;6.756;2023-05-02T15:44:33;7.97;;;4.50;;